sensor_id;sensor_type;location;lat;lon;timestamp;temperature;humidity
1417;DHT22;703;51.162;13.574;2022-12-07T00:03:35;2.10;99.90
1417;DHT22;703;51.162;13.574;2022-12-07T00:06:02;2.20;99.90
1417;DHT22;703;51.162;13.574;2022-12-07T00:08:27;2.20;99.90
1417;DHT22;703;51.162;13.574;2022-12-07T00:10:54;2.20;99.90
1417;DHT22;703;51.162;13.574;2022-12-07T00:13:20;2.10;99.90
1417;DHT22;703;51.162;13.574;2022-12-07T00:15:45;2.20;99.90
1417;DHT22;703;51.162;13.574;2022-12-07T00:25:30;2.10;99.90
1417;DHT22;703;51.162;13.574;2022-12-07T00:30:23;2.10;99.90
1417;DHT22;703;51.162;13.574;2022-12-07T00:32:49;2.10;99.90
1417;DHT22;703;51.162;13.574;2022-12-07T00:35:14;2.10;99.90
1417;DHT22;703;51.162;13.574;2022-12-07T00:40:06;2.10;99.90
1417;DHT22;703;51.162;13.574;2022-12-07T00:42:33;2.10;99.90
1417;DHT22;703;51.162;13.574;2022-12-07T00:44:58;2.10;99.90
1417;DHT22;703;51.162;13.574;2022-12-07T01:14:13;2.20;99.90
1417;DHT22;703;51.162;13.574;2022-12-07T01:19:05;2.20;99.90
1417;DHT22;703;51.162;13.574;2022-12-07T01:21:33;2.20;99.90
1417;DHT22;703;51.162;13.574;2022-12-07T01:24:08;2.10;99.90
1417;DHT22;703;51.162;13.574;2022-12-07T01:26:34;2.10;99.90
1417;DHT22;703;51.162;13.574;2022-12-07T01:29:00;2.10;99.90
1417;DHT22;703;51.162;13.574;2022-12-07T01:31:27;2.10;99.90
1417;DHT22;703;51.162;13.574;2022-12-07T01:33:55;2.20;99.90
1417;DHT22;703;51.162;13.574;2022-12-07T01:36:26;2.20;99.90
1417;DHT22;703;51.162;13.574;2022-12-07T01:38:56;2.10;99.90
1417;DHT22;703;51.162;13.574;2022-12-07T01:41:23;2.10;99.90
1417;DHT22;703;51.162;13.574;2022-12-07T01:46:45;2.10;99.90
1417;DHT22;703;51.162;13.574;2022-12-07T01:49:27;2.10;99.90
1417;DHT22;703;51.162;13.574;2022-12-07T01:52:28;2.10;99.90
1417;DHT22;703;51.162;13.574;2022-12-07T01:54:58;2.00;99.90
1417;DHT22;703;51.162;13.574;2022-12-07T01:57:25;2.00;99.90
1417;DHT22;703;51.162;13.574;2022-12-07T01:59:51;2.00;99.90
1417;DHT22;703;51.162;13.574;2022-12-07T02:02:34;1.90;99.90
1417;DHT22;703;51.162;13.574;2022-12-07T02:05:02;1.80;99.90
1417;DHT22;703;51.162;13.574;2022-12-07T02:09:55;1.60;99.90
1417;DHT22;703;51.162;13.574;2022-12-07T02:12:21;1.60;99.90
1417;DHT22;703;51.162;13.574;2022-12-07T02:14:48;1.50;99.90
1417;DHT22;703;51.162;13.574;2022-12-07T02:17:24;1.50;99.90
1417;DHT22;703;51.162;13.574;2022-12-07T02:28:29;1.50;99.90
1417;DHT22;703;51.162;13.574;2022-12-07T02:31:08;1.50;99.90
1417;DHT22;703;51.162;13.574;2022-12-07T02:33:49;1.50;99.90
1417;DHT22;703;51.162;13.574;2022-12-07T02:36:25;1.50;99.90
1417;DHT22;703;51.162;13.574;2022-12-07T02:39:09;1.50;99.90
1417;DHT22;703;51.162;13.574;2022-12-07T02:41:43;1.50;99.90
1417;DHT22;703;51.162;13.574;2022-12-07T02:44:14;1.50;99.90
1417;DHT22;703;51.162;13.574;2022-12-07T02:46:56;1.50;99.90
1417;DHT22;703;51.162;13.574;2022-12-07T02:49:24;1.50;99.90
1417;DHT22;703;51.162;13.574;2022-12-07T02:51:52;1.50;99.90
1417;DHT22;703;51.162;13.574;2022-12-07T02:54:20;1.40;99.90
1417;DHT22;703;51.162;13.574;2022-12-07T03:02:35;1.10;99.90
1417;DHT22;703;51.162;13.574;2022-12-07T03:11:43;0.90;99.90
1417;DHT22;703;51.162;13.574;2022-12-07T03:14:11;0.90;99.90
1417;DHT22;703;51.162;13.574;2022-12-07T03:17:18;0.80;99.90
1417;DHT22;703;51.162;13.574;2022-12-07T03:19:45;0.70;99.90
1417;DHT22;703;51.162;13.574;2022-12-07T03:22:13;0.70;99.90
1417;DHT22;703;51.162;13.574;2022-12-07T03:24:52;0.70;99.90
1417;DHT22;703;51.162;13.574;2022-12-07T03:27:23;0.60;99.90
1417;DHT22;703;51.162;13.574;2022-12-07T03:30:02;0.50;99.90
1417;DHT22;703;51.162;13.574;2022-12-07T03:32:37;0.50;99.90
1417;DHT22;703;51.162;13.574;2022-12-07T03:38:06;0.60;99.90
1417;DHT22;703;51.162;13.574;2022-12-07T03:40:50;0.60;99.90
1417;DHT22;703;51.162;13.574;2022-12-07T03:43:19;0.80;99.90
1417;DHT22;703;51.162;13.574;2022-12-07T03:46:01;0.70;99.90
1417;DHT22;703;51.162;13.574;2022-12-07T03:57:08;0.80;99.90
1417;DHT22;703;51.162;13.574;2022-12-07T03:59:36;0.90;99.90
1417;DHT22;703;51.162;13.574;2022-12-07T04:02:05;0.80;99.90
1417;DHT22;703;51.162;13.574;2022-12-07T04:04:31;0.80;99.90
1417;DHT22;703;51.162;13.574;2022-12-07T04:06:57;0.70;99.90
1417;DHT22;703;51.162;13.574;2022-12-07T04:14:15;0.50;99.90
1417;DHT22;703;51.162;13.574;2022-12-07T04:16:49;0.60;99.90
1417;DHT22;703;51.162;13.574;2022-12-07T04:19:16;0.60;99.90
1417;DHT22;703;51.162;13.574;2022-12-07T04:24:08;0.50;99.90
1417;DHT22;703;51.162;13.574;2022-12-07T04:26:34;0.40;99.90
1417;DHT22;703;51.162;13.574;2022-12-07T04:31:26;0.30;99.90
1417;DHT22;703;51.162;13.574;2022-12-07T04:33:52;0.10;99.90
1417;DHT22;703;51.162;13.574;2022-12-07T04:36:17;0.20;99.90
1417;DHT22;703;51.162;13.574;2022-12-07T05:05:33;0.30;99.90
1417;DHT22;703;51.162;13.574;2022-12-07T05:15:16;0.60;99.90
1417;DHT22;703;51.162;13.574;2022-12-07T05:17:42;0.60;99.90
1417;DHT22;703;51.162;13.574;2022-12-07T05:20:09;0.70;99.90
1417;DHT22;703;51.162;13.574;2022-12-07T05:27:28;1.00;99.90
1417;DHT22;703;51.162;13.574;2022-12-07T05:34:46;1.10;99.90
1417;DHT22;703;51.162;13.574;2022-12-07T05:37:12;1.20;99.90
1417;DHT22;703;51.162;13.574;2022-12-07T05:42:06;1.20;99.90
1417;DHT22;703;51.162;13.574;2022-12-07T05:44:43;1.30;99.90
1417;DHT22;703;51.162;13.574;2022-12-07T05:47:09;1.30;99.90
1417;DHT22;703;51.162;13.574;2022-12-07T05:54:27;1.40;99.90
1417;DHT22;703;51.162;13.574;2022-12-07T06:02:09;1.60;99.90
1417;DHT22;703;51.162;13.574;2022-12-07T06:04:36;1.50;99.90
1417;DHT22;703;51.162;13.574;2022-12-07T06:07:03;1.50;99.90
1417;DHT22;703;51.162;13.574;2022-12-07T06:11:58;1.50;99.90
1417;DHT22;703;51.162;13.574;2022-12-07T06:14:43;1.60;99.90
1417;DHT22;703;51.162;13.574;2022-12-07T06:17:09;1.50;99.90
1417;DHT22;703;51.162;13.574;2022-12-07T06:19:35;1.50;99.90
1417;DHT22;703;51.162;13.574;2022-12-07T06:22:01;1.50;99.90
1417;DHT22;703;51.162;13.574;2022-12-07T06:24:28;1.60;99.90
1417;DHT22;703;51.162;13.574;2022-12-07T06:26:54;1.70;99.90
1417;DHT22;703;51.162;13.574;2022-12-07T06:29:20;1.70;99.90
1417;DHT22;703;51.162;13.574;2022-12-07T06:34:15;1.70;99.90
1417;DHT22;703;51.162;13.574;2022-12-07T06:36:41;1.70;99.90
1417;DHT22;703;51.162;13.574;2022-12-07T06:39:07;1.80;99.90
1417;DHT22;703;51.162;13.574;2022-12-07T06:41:35;1.90;99.90
1417;DHT22;703;51.162;13.574;2022-12-07T06:46:27;1.90;99.90
1417;DHT22;703;51.162;13.574;2022-12-07T06:51:19;1.80;99.90
1417;DHT22;703;51.162;13.574;2022-12-07T06:58:37;1.80;99.90
1417;DHT22;703;51.162;13.574;2022-12-07T07:01:02;1.80;99.90
1417;DHT22;703;51.162;13.574;2022-12-07T07:03:28;1.70;99.90
1417;DHT22;703;51.162;13.574;2022-12-07T07:15:38;1.50;99.90
1417;DHT22;703;51.162;13.574;2022-12-07T07:22:56;1.60;99.90
1417;DHT22;703;51.162;13.574;2022-12-07T07:27:48;1.60;99.90
1417;DHT22;703;51.162;13.574;2022-12-07T07:30:14;1.60;99.90
1417;DHT22;703;51.162;13.574;2022-12-07T07:32:39;1.70;99.90
1417;DHT22;703;51.162;13.574;2022-12-07T07:35:05;1.70;99.90
1417;DHT22;703;51.162;13.574;2022-12-07T07:52:07;2.00;99.90
1417;DHT22;703;51.162;13.574;2022-12-07T07:56:59;2.20;99.90
1417;DHT22;703;51.162;13.574;2022-12-07T08:04:17;2.30;99.90
1417;DHT22;703;51.162;13.574;2022-12-07T08:06:42;2.30;99.90
1417;DHT22;703;51.162;13.574;2022-12-07T08:09:09;2.30;99.90
1417;DHT22;703;51.162;13.574;2022-12-07T08:11:35;2.40;99.90
1417;DHT22;703;51.162;13.574;2022-12-07T08:18:53;2.50;99.90
1417;DHT22;703;51.162;13.574;2022-12-07T08:21:20;2.50;99.90
1417;DHT22;703;51.162;13.574;2022-12-07T08:23:46;2.60;99.90
1417;DHT22;703;51.162;13.574;2022-12-07T08:26:14;2.60;99.90
1417;DHT22;703;51.162;13.574;2022-12-07T08:28:41;2.60;99.90
1417;DHT22;703;51.162;13.574;2022-12-07T08:31:11;2.70;99.90
1417;DHT22;703;51.162;13.574;2022-12-07T08:36:06;2.70;99.90
1417;DHT22;703;51.162;13.574;2022-12-07T08:38:34;2.80;99.90
1417;DHT22;703;51.162;13.574;2022-12-07T08:43:26;2.90;99.90
1417;DHT22;703;51.162;13.574;2022-12-07T08:49:09;3.00;99.90
1417;DHT22;703;51.162;13.574;2022-12-07T08:54:05;3.10;99.90
1417;DHT22;703;51.162;13.574;2022-12-07T09:08:45;3.60;99.90
1417;DHT22;703;51.162;13.574;2022-12-07T09:23:22;3.60;99.90
1417;DHT22;703;51.162;13.574;2022-12-07T09:30:46;3.60;99.90
1417;DHT22;703;51.162;13.574;2022-12-07T09:33:12;3.70;99.90
1417;DHT22;703;51.162;13.574;2022-12-07T09:40:30;3.80;99.90
1417;DHT22;703;51.162;13.574;2022-12-07T09:45:30;4.00;99.90
1417;DHT22;703;51.162;13.574;2022-12-07T09:47:58;4.10;99.90
1417;DHT22;703;51.162;13.574;2022-12-07T09:50:26;4.10;99.90
1417;DHT22;703;51.162;13.574;2022-12-07T09:52:53;4.20;99.90
1417;DHT22;703;51.162;13.574;2022-12-07T09:55:24;4.30;99.90
1417;DHT22;703;51.162;13.574;2022-12-07T10:00:20;4.30;99.90
1417;DHT22;703;51.162;13.574;2022-12-07T10:02:59;4.50;99.90
1417;DHT22;703;51.162;13.574;2022-12-07T10:05:48;4.50;99.90
1417;DHT22;703;51.162;13.574;2022-12-07T10:10:46;4.60;99.90
1417;DHT22;703;51.162;13.574;2022-12-07T10:13:19;4.70;99.90
1417;DHT22;703;51.162;13.574;2022-12-07T10:18:33;4.70;99.90
1417;DHT22;703;51.162;13.574;2022-12-07T10:23:36;4.50;99.90
1417;DHT22;703;51.162;13.574;2022-12-07T10:32:31;4.50;99.90
1417;DHT22;703;51.162;13.574;2022-12-07T10:35:24;4.40;99.90
1417;DHT22;703;51.162;13.574;2022-12-07T10:37:51;4.40;99.90
1417;DHT22;703;51.162;13.574;2022-12-07T10:40:35;4.40;99.90
1417;DHT22;703;51.162;13.574;2022-12-07T10:43:18;4.50;99.90
1417;DHT22;703;51.162;13.574;2022-12-07T10:51:02;4.20;99.90
1417;DHT22;703;51.162;13.574;2022-12-07T11:01:53;4.40;99.90
1417;DHT22;703;51.162;13.574;2022-12-07T11:12:01;4.40;99.90
1417;DHT22;703;51.162;13.574;2022-12-07T11:17:32;4.40;99.90
1417;DHT22;703;51.162;13.574;2022-12-07T11:33:57;3.30;99.90
1417;DHT22;703;51.162;13.574;2022-12-07T11:36:44;3.20;99.90
1417;DHT22;703;51.162;13.574;2022-12-07T11:39:30;3.30;99.90
1417;DHT22;703;51.162;13.574;2022-12-07T11:42:06;3.30;99.90
1417;DHT22;703;51.162;13.574;2022-12-07T11:47:36;3.50;99.90
1417;DHT22;703;51.162;13.574;2022-12-07T11:52:58;3.50;99.90
1417;DHT22;703;51.162;13.574;2022-12-07T11:58:10;3.50;99.90
1417;DHT22;703;51.162;13.574;2022-12-07T12:00:39;3.50;99.90
1417;DHT22;703;51.162;13.574;2022-12-07T12:03:15;3.60;99.90
1417;DHT22;703;51.162;13.574;2022-12-07T12:05:45;3.60;99.90
1417;DHT22;703;51.162;13.574;2022-12-07T12:08:34;3.70;99.90
1417;DHT22;703;51.162;13.574;2022-12-07T12:22:39;4.20;99.90
1417;DHT22;703;51.162;13.574;2022-12-07T12:25:34;4.20;99.90
1417;DHT22;703;51.162;13.574;2022-12-07T12:28:01;4.20;99.90
1417;DHT22;703;51.162;13.574;2022-12-07T12:30:37;4.30;99.90
1417;DHT22;703;51.162;13.574;2022-12-07T12:33:25;4.30;99.90
1417;DHT22;703;51.162;13.574;2022-12-07T12:36:18;4.30;99.90
1417;DHT22;703;51.162;13.574;2022-12-07T12:39:13;4.20;99.90
1417;DHT22;703;51.162;13.574;2022-12-07T13:05:37;2.90;99.90
1417;DHT22;703;51.162;13.574;2022-12-07T13:08:21;2.80;99.90
1417;DHT22;703;51.162;13.574;2022-12-07T13:10:49;2.70;99.90
1417;DHT22;703;51.162;13.574;2022-12-07T13:31:48;3.00;99.90
1417;DHT22;703;51.162;13.574;2022-12-07T13:37:01;3.00;99.90
1417;DHT22;703;51.162;13.574;2022-12-07T13:39:28;3.00;99.90
1417;DHT22;703;51.162;13.574;2022-12-07T13:41:56;3.00;99.90
1417;DHT22;703;51.162;13.574;2022-12-07T13:44:23;3.10;99.90
1417;DHT22;703;51.162;13.574;2022-12-07T13:47:09;3.10;99.90
1417;DHT22;703;51.162;13.574;2022-12-07T13:49:50;3.10;99.90
1417;DHT22;703;51.162;13.574;2022-12-07T13:57:15;3.20;99.90
1417;DHT22;703;51.162;13.574;2022-12-07T13:59:41;3.30;99.90
1417;DHT22;703;51.162;13.574;2022-12-07T14:04:43;3.30;99.90
1417;DHT22;703;51.162;13.574;2022-12-07T14:07:28;3.30;99.90
1417;DHT22;703;51.162;13.574;2022-12-07T14:12:20;3.30;99.90
1417;DHT22;703;51.162;13.574;2022-12-07T14:14:48;3.30;99.90
1417;DHT22;703;51.162;13.574;2022-12-07T14:19:57;3.40;99.90
1417;DHT22;703;51.162;13.574;2022-12-07T14:27:33;3.40;99.90
1417;DHT22;703;51.162;13.574;2022-12-07T14:30:03;3.50;99.90
1417;DHT22;703;51.162;13.574;2022-12-07T14:32:30;3.40;99.90
1417;DHT22;703;51.162;13.574;2022-12-07T14:37:29;3.40;99.90
1417;DHT22;703;51.162;13.574;2022-12-07T14:39:55;3.40;99.90
1417;DHT22;703;51.162;13.574;2022-12-07T14:42:24;3.40;99.90
1417;DHT22;703;51.162;13.574;2022-12-07T14:44:57;3.40;99.90
1417;DHT22;703;51.162;13.574;2022-12-07T14:47:23;3.40;99.90
1417;DHT22;703;51.162;13.574;2022-12-07T14:52:21;3.40;99.90
1417;DHT22;703;51.162;13.574;2022-12-07T14:54:48;3.40;99.90
1417;DHT22;703;51.162;13.574;2022-12-07T15:02:08;3.50;99.90
1417;DHT22;703;51.162;13.574;2022-12-07T15:04:35;3.40;99.90
1417;DHT22;703;51.162;13.574;2022-12-07T15:07:03;3.10;99.90
1417;DHT22;703;51.162;13.574;2022-12-07T15:09:30;2.80;99.90
1417;DHT22;703;51.162;13.574;2022-12-07T15:14:22;2.50;99.90
1417;DHT22;703;51.162;13.574;2022-12-07T15:16:47;2.40;99.90
1417;DHT22;703;51.162;13.574;2022-12-07T15:19:19;2.30;99.90
1417;DHT22;703;51.162;13.574;2022-12-07T15:21:48;2.40;99.90
1417;DHT22;703;51.162;13.574;2022-12-07T15:24:14;2.40;99.90
1417;DHT22;703;51.162;13.574;2022-12-07T15:26:40;2.30;99.90
1417;DHT22;703;51.162;13.574;2022-12-07T15:29:06;2.30;99.90
1417;DHT22;703;51.162;13.574;2022-12-07T15:31:33;2.30;99.90
1417;DHT22;703;51.162;13.574;2022-12-07T15:33:58;2.30;99.90
1417;DHT22;703;51.162;13.574;2022-12-07T15:36:27;2.40;99.90
1417;DHT22;703;51.162;13.574;2022-12-07T15:38:53;2.30;99.90
1417;DHT22;703;51.162;13.574;2022-12-07T15:43:46;2.30;99.90
1417;DHT22;703;51.162;13.574;2022-12-07T15:46:31;2.40;99.90
1417;DHT22;703;51.162;13.574;2022-12-07T15:48:57;2.30;99.90
1417;DHT22;703;51.162;13.574;2022-12-07T15:58:41;2.40;99.90
1417;DHT22;703;51.162;13.574;2022-12-07T16:01:15;2.40;99.90
1417;DHT22;703;51.162;13.574;2022-12-07T16:03:41;2.40;99.90
1417;DHT22;703;51.162;13.574;2022-12-07T16:06:07;2.40;99.90
1417;DHT22;703;51.162;13.574;2022-12-07T16:08:33;2.50;99.90
1417;DHT22;703;51.162;13.574;2022-12-07T16:10:59;2.50;99.90
1417;DHT22;703;51.162;13.574;2022-12-07T16:23:09;2.50;99.90
1417;DHT22;703;51.162;13.574;2022-12-07T16:25:35;2.50;99.90
1417;DHT22;703;51.162;13.574;2022-12-07T16:30:27;2.60;99.90
1417;DHT22;703;51.162;13.574;2022-12-07T16:35:20;2.60;99.90
1417;DHT22;703;51.162;13.574;2022-12-07T16:40:14;2.70;99.90
1417;DHT22;703;51.162;13.574;2022-12-07T16:42:40;2.80;99.90
1417;DHT22;703;51.162;13.574;2022-12-07T16:47:32;2.80;99.90
1417;DHT22;703;51.162;13.574;2022-12-07T16:49:59;2.90;99.90
1417;DHT22;703;51.162;13.574;2022-12-07T16:52:25;2.90;99.90
1417;DHT22;703;51.162;13.574;2022-12-07T16:59:45;3.00;99.90
1417;DHT22;703;51.162;13.574;2022-12-07T17:02:12;3.00;99.90
1417;DHT22;703;51.162;13.574;2022-12-07T17:07:09;3.10;99.90
1417;DHT22;703;51.162;13.574;2022-12-07T17:09:36;3.00;99.90
1417;DHT22;703;51.162;13.574;2022-12-07T17:12:03;3.00;99.90
1417;DHT22;703;51.162;13.574;2022-12-07T17:19:39;3.00;99.90
1417;DHT22;703;51.162;13.574;2022-12-07T17:22:05;3.00;99.90
1417;DHT22;703;51.162;13.574;2022-12-07T17:24:32;2.90;99.90
1417;DHT22;703;51.162;13.574;2022-12-07T17:26:57;2.90;99.90
1417;DHT22;703;51.162;13.574;2022-12-07T17:36:42;2.90;99.90
1417;DHT22;703;51.162;13.574;2022-12-07T17:39:12;2.90;99.90
1417;DHT22;703;51.162;13.574;2022-12-07T17:41:39;2.90;99.90
1417;DHT22;703;51.162;13.574;2022-12-07T17:46:52;2.90;99.90
1417;DHT22;703;51.162;13.574;2022-12-07T17:49:20;2.90;99.90
1417;DHT22;703;51.162;13.574;2022-12-07T17:51:47;3.00;99.90
1417;DHT22;703;51.162;13.574;2022-12-07T17:54:31;3.00;99.90
1417;DHT22;703;51.162;13.574;2022-12-07T17:57:04;2.90;99.90
1417;DHT22;703;51.162;13.574;2022-12-07T17:59:30;2.80;99.90
1417;DHT22;703;51.162;13.574;2022-12-07T18:04:22;2.60;99.90
1417;DHT22;703;51.162;13.574;2022-12-07T18:09:16;2.50;99.90
1417;DHT22;703;51.162;13.574;2022-12-07T18:11:44;2.40;99.90
1417;DHT22;703;51.162;13.574;2022-12-07T18:14:11;2.40;99.90
1417;DHT22;703;51.162;13.574;2022-12-07T18:16:38;2.30;99.90
1417;DHT22;703;51.162;13.574;2022-12-07T18:19:09;2.30;99.90
1417;DHT22;703;51.162;13.574;2022-12-07T18:24:07;2.30;99.90
1417;DHT22;703;51.162;13.574;2022-12-07T18:26:34;2.30;99.90
1417;DHT22;703;51.162;13.574;2022-12-07T18:29:04;2.30;99.90
1417;DHT22;703;51.162;13.574;2022-12-07T18:31:31;2.20;99.90
1417;DHT22;703;51.162;13.574;2022-12-07T18:34:02;2.30;99.90
1417;DHT22;703;51.162;13.574;2022-12-07T18:36:30;2.20;99.90
1417;DHT22;703;51.162;13.574;2022-12-07T18:38:56;2.20;99.90
1417;DHT22;703;51.162;13.574;2022-12-07T18:41:25;2.10;99.90
1417;DHT22;703;51.162;13.574;2022-12-07T18:43:55;2.10;99.90
1417;DHT22;703;51.162;13.574;2022-12-07T18:46:21;2.20;99.90
1417;DHT22;703;51.162;13.574;2022-12-07T18:48:48;2.10;99.90
1417;DHT22;703;51.162;13.574;2022-12-07T18:51:18;2.00;99.90
1417;DHT22;703;51.162;13.574;2022-12-07T18:56:21;2.10;99.90
1417;DHT22;703;51.162;13.574;2022-12-07T18:58:52;2.10;99.90
1417;DHT22;703;51.162;13.574;2022-12-07T19:01:39;2.10;99.90
1417;DHT22;703;51.162;13.574;2022-12-07T19:04:05;2.20;99.90
1417;DHT22;703;51.162;13.574;2022-12-07T19:06:31;2.10;99.90
1417;DHT22;703;51.162;13.574;2022-12-07T19:11:26;2.10;99.90
1417;DHT22;703;51.162;13.574;2022-12-07T19:14:12;2.10;99.90
1417;DHT22;703;51.162;13.574;2022-12-07T19:16:40;2.10;99.90
1417;DHT22;703;51.162;13.574;2022-12-07T19:24:05;2.30;99.90
1417;DHT22;703;51.162;13.574;2022-12-07T19:26:32;4.10;99.90
1417;DHT22;703;51.162;13.574;2022-12-07T19:28:58;2.30;99.90
1417;DHT22;703;51.162;13.574;2022-12-07T19:33:50;2.30;99.90
1417;DHT22;703;51.162;13.574;2022-12-07T19:36:19;2.30;99.90
1417;DHT22;703;51.162;13.574;2022-12-07T19:41:12;2.40;99.90
1417;DHT22;703;51.162;13.574;2022-12-07T19:44:01;2.40;99.90
1417;DHT22;703;51.162;13.574;2022-12-07T19:46:27;2.40;99.90
1417;DHT22;703;51.162;13.574;2022-12-07T19:51:21;2.40;99.90
1417;DHT22;703;51.162;13.574;2022-12-07T19:53:46;2.40;99.90
1417;DHT22;703;51.162;13.574;2022-12-07T19:56:16;2.30;99.90
1417;DHT22;703;51.162;13.574;2022-12-07T20:01:09;2.40;99.90
1417;DHT22;703;51.162;13.574;2022-12-07T20:03:35;2.40;99.90
1417;DHT22;703;51.162;13.574;2022-12-07T20:08:28;2.50;99.90
1417;DHT22;703;51.162;13.574;2022-12-07T20:10:57;2.50;99.90
1417;DHT22;703;51.162;13.574;2022-12-07T20:13:27;2.50;99.90
1417;DHT22;703;51.162;13.574;2022-12-07T20:15:54;2.40;99.90
1417;DHT22;703;51.162;13.574;2022-12-07T20:18:20;2.30;99.90
1417;DHT22;703;51.162;13.574;2022-12-07T20:20:57;2.30;99.90
1417;DHT22;703;51.162;13.574;2022-12-07T20:23:23;2.30;99.90
1417;DHT22;703;51.162;13.574;2022-12-07T20:28:15;2.10;99.90
1417;DHT22;703;51.162;13.574;2022-12-07T20:30:49;2.10;99.90
1417;DHT22;703;51.162;13.574;2022-12-07T20:38:09;2.00;99.90
1417;DHT22;703;51.162;13.574;2022-12-07T20:40:36;2.00;99.90
1417;DHT22;703;51.162;13.574;2022-12-07T20:43:03;2.00;99.90
1417;DHT22;703;51.162;13.574;2022-12-07T20:47:55;1.80;99.90
1417;DHT22;703;51.162;13.574;2022-12-07T20:50:21;1.90;99.90
1417;DHT22;703;51.162;13.574;2022-12-07T20:52:47;2.00;99.90
1417;DHT22;703;51.162;13.574;2022-12-07T20:55:13;2.00;99.90
1417;DHT22;703;51.162;13.574;2022-12-07T21:00:06;2.10;99.90
1417;DHT22;703;51.162;13.574;2022-12-07T21:02:33;2.10;99.90
1417;DHT22;703;51.162;13.574;2022-12-07T21:09:51;2.10;99.90
1417;DHT22;703;51.162;13.574;2022-12-07T21:12:17;2.10;99.90
1417;DHT22;703;51.162;13.574;2022-12-07T21:14:44;2.10;99.90
1417;DHT22;703;51.162;13.574;2022-12-07T21:17:10;2.10;99.90
1417;DHT22;703;51.162;13.574;2022-12-07T21:19:36;2.10;99.90
1417;DHT22;703;51.162;13.574;2022-12-07T21:22:03;2.00;99.90
1417;DHT22;703;51.162;13.574;2022-12-07T21:26:55;2.10;99.90
1417;DHT22;703;51.162;13.574;2022-12-07T21:29:20;2.10;99.90
1417;DHT22;703;51.162;13.574;2022-12-07T21:31:46;2.00;99.90
1417;DHT22;703;51.162;13.574;2022-12-07T21:41:32;2.10;99.90
1417;DHT22;703;51.162;13.574;2022-12-07T21:44:00;2.10;99.90
1417;DHT22;703;51.162;13.574;2022-12-07T21:46:28;2.10;99.90
1417;DHT22;703;51.162;13.574;2022-12-07T21:48:56;2.10;99.90
1417;DHT22;703;51.162;13.574;2022-12-07T21:51:26;2.20;99.90
1417;DHT22;703;51.162;13.574;2022-12-07T21:53:53;2.20;99.90
1417;DHT22;703;51.162;13.574;2022-12-07T21:56:25;2.20;99.90
1417;DHT22;703;51.162;13.574;2022-12-07T21:58:57;2.30;99.90
1417;DHT22;703;51.162;13.574;2022-12-07T22:01:25;2.30;99.90
1417;DHT22;703;51.162;13.574;2022-12-07T22:03:51;2.30;99.90
1417;DHT22;703;51.162;13.574;2022-12-07T22:06:22;2.40;99.90
1417;DHT22;703;51.162;13.574;2022-12-07T22:08:49;2.30;99.90
1417;DHT22;703;51.162;13.574;2022-12-07T22:11:15;2.30;99.90
1417;DHT22;703;51.162;13.574;2022-12-07T22:13:42;2.30;99.90
1417;DHT22;703;51.162;13.574;2022-12-07T22:23:45;2.30;99.90
1417;DHT22;703;51.162;13.574;2022-12-07T22:26:13;2.30;99.90
1417;DHT22;703;51.162;13.574;2022-12-07T22:28:40;2.40;99.90
1417;DHT22;703;51.162;13.574;2022-12-07T22:31:12;2.50;99.90
1417;DHT22;703;51.162;13.574;2022-12-07T22:36:05;2.50;99.90
1417;DHT22;703;51.162;13.574;2022-12-07T22:38:31;2.50;99.90
1417;DHT22;703;51.162;13.574;2022-12-07T22:40:57;2.50;99.90
1417;DHT22;703;51.162;13.574;2022-12-07T22:43:24;2.50;99.90
1417;DHT22;703;51.162;13.574;2022-12-07T22:45:57;2.40;99.90
1417;DHT22;703;51.162;13.574;2022-12-07T22:48:24;2.40;99.90
1417;DHT22;703;51.162;13.574;2022-12-07T22:53:20;2.40;99.90
1417;DHT22;703;51.162;13.574;2022-12-07T23:03:05;2.40;99.90
1417;DHT22;703;51.162;13.574;2022-12-07T23:15:35;2.40;99.90
1417;DHT22;703;51.162;13.574;2022-12-07T23:18:03;2.40;99.90
1417;DHT22;703;51.162;13.574;2022-12-07T23:20:29;2.40;99.90
1417;DHT22;703;51.162;13.574;2022-12-07T23:22:55;2.40;99.90
1417;DHT22;703;51.162;13.574;2022-12-07T23:25:22;2.30;99.90
1417;DHT22;703;51.162;13.574;2022-12-07T23:52:08;2.50;99.90
1417;DHT22;703;51.162;13.574;2022-12-07T23:54:33;2.50;99.90
1417;DHT22;703;51.162;13.574;2022-12-07T23:56:59;2.50;99.90
